Resende, Brazil
Current Conditions -  °F | °C
As of 3:00 PM on Monday 22 Dec 2014 (Local Time) from SBGW Reporting Station
Rain Showers Rain Showers  
Wind Chill: 90°   Ceiling: 7000
Heat Index: 92°   Visibility: 6mi
Dew Point: 66°   Wind: 5mph
Humidity: 46%   Direction: 310°NW
Pressure: 29.88"   Gusts: NA
Location:  22.46°S, 44.45°W
Report Text: SBGW 221700Z 31004KT 270V330 9999 VCSH SCT025 FEW030TCU BKN070 32/19 Q1012
Loading
Personal Weather Stations






























Interactive Weather Map New forecast layout! Learn more

10-Day Weather Forecast

Advertisements
Track Severe Weather on mobile